sensor_id;sensor_type;location;lat;lon;timestamp;P1;durP1;ratioP1;P2;durP2;ratioP2
35667;SDS011;22158;59.280;17.806;2023-07-13T00:01:03;3.45;;;2.58;;
35667;SDS011;22158;59.280;17.806;2023-07-13T00:03:29;6.30;;;2.90;;
35667;SDS011;22158;59.280;17.806;2023-07-13T00:06:00;3.70;;;2.95;;
35667;SDS011;22158;59.280;17.806;2023-07-13T00:08:30;4.63;;;3.10;;
35667;SDS011;22158;59.280;17.806;2023-07-13T00:13:23;8.65;;;2.65;;
35667;SDS011;22158;59.280;17.806;2023-07-13T00:15:49;3.95;;;2.63;;
35667;SDS011;22158;59.280;17.806;2023-07-13T00:18:14;3.40;;;2.63;;
35667;SDS011;22158;59.280;17.806;2023-07-13T00:20:40;4.00;;;2.90;;
35667;SDS011;22158;59.280;17.806;2023-07-13T00:23:06;3.97;;;2.97;;
35667;SDS011;22158;59.280;17.806;2023-07-13T00:25:32;3.95;;;2.80;;
35667;SDS011;22158;59.280;17.806;2023-07-13T00:27:57;5.35;;;2.85;;
35667;SDS011;22158;59.280;17.806;2023-07-13T00:30:23;4.75;;;3.20;;
35667;SDS011;22158;59.280;17.806;2023-07-13T00:32:49;3.20;;;2.65;;
35667;SDS011;22158;59.280;17.806;2023-07-13T00:35:15;4.55;;;3.25;;
35667;SDS011;22158;59.280;17.806;2023-07-13T00:37:41;8.18;;;3.63;;
35667;SDS011;22158;59.280;17.806;2023-07-13T00:40:09;4.40;;;2.80;;
35667;SDS011;22158;59.280;17.806;2023-07-13T00:42:36;3.83;;;2.55;;
35667;SDS011;22158;59.280;17.806;2023-07-13T00:47:36;5.30;;;3.45;;
35667;SDS011;22158;59.280;17.806;2023-07-13T00:50:02;7.50;;;3.70;;
35667;SDS011;22158;59.280;17.806;2023-07-13T00:52:30;5.55;;;2.67;;
35667;SDS011;22158;59.280;17.806;2023-07-13T00:54:56;5.53;;;2.95;;
35667;SDS011;22158;59.280;17.806;2023-07-13T00:57:22;6.65;;;3.20;;
35667;SDS011;22158;59.280;17.806;2023-07-13T00:59:51;4.13;;;3.15;;
35667;SDS011;22158;59.280;17.806;2023-07-13T01:02:20;4.25;;;2.67;;
35667;SDS011;22158;59.280;17.806;2023-07-13T01:04:47;5.75;;;3.03;;
35667;SDS011;22158;59.280;17.806;2023-07-13T01:07:13;4.82;;;2.88;;
35667;SDS011;22158;59.280;17.806;2023-07-13T01:09:39;5.88;;;3.00;;
35667;SDS011;22158;59.280;17.806;2023-07-13T01:12:05;4.90;;;2.95;;
35667;SDS011;22158;59.280;17.806;2023-07-13T01:14:31;10.10;;;2.90;;
35667;SDS011;22158;59.280;17.806;2023-07-13T01:16:56;6.88;;;3.10;;
35667;SDS011;22158;59.280;17.806;2023-07-13T01:22:06;3.75;;;2.90;;
35667;SDS011;22158;59.280;17.806;2023-07-13T01:24:34;3.85;;;2.70;;
35667;SDS011;22158;59.280;17.806;2023-07-13T01:27:04;4.43;;;2.75;;
35667;SDS011;22158;59.280;17.806;2023-07-13T01:29:32;5.25;;;2.92;;
35667;SDS011;22158;59.280;17.806;2023-07-13T01:31:59;7.28;;;3.03;;
35667;SDS011;22158;59.280;17.806;2023-07-13T01:34:26;8.90;;;2.88;;
35667;SDS011;22158;59.280;17.806;2023-07-13T01:36:52;5.40;;;2.95;;
35667;SDS011;22158;59.280;17.806;2023-07-13T01:39:18;3.70;;;2.72;;
35667;SDS011;22158;59.280;17.806;2023-07-13T01:41:47;4.55;;;2.70;;
35667;SDS011;22158;59.280;17.806;2023-07-13T01:44:13;5.20;;;3.25;;
35667;SDS011;22158;59.280;17.806;2023-07-13T01:46:39;4.32;;;3.05;;
35667;SDS011;22158;59.280;17.806;2023-07-13T01:49:04;4.50;;;2.97;;
35667;SDS011;22158;59.280;17.806;2023-07-13T01:51:30;3.50;;;2.38;;
35667;SDS011;22158;59.280;17.806;2023-07-13T01:53:56;4.13;;;2.88;;
35667;SDS011;22158;59.280;17.806;2023-07-13T01:56:21;4.63;;;2.63;;
35667;SDS011;22158;59.280;17.806;2023-07-13T01:58:47;5.47;;;3.20;;
35667;SDS011;22158;59.280;17.806;2023-07-13T02:01:13;3.97;;;2.63;;
35667;SDS011;22158;59.280;17.806;2023-07-13T02:03:38;4.75;;;2.78;;
35667;SDS011;22158;59.280;17.806;2023-07-13T02:06:04;3.30;;;2.47;;
35667;SDS011;22158;59.280;17.806;2023-07-13T02:08:30;3.88;;;3.10;;
35667;SDS011;22158;59.280;17.806;2023-07-13T02:10:57;3.72;;;2.90;;
35667;SDS011;22158;59.280;17.806;2023-07-13T02:13:23;4.75;;;2.88;;
35667;SDS011;22158;59.280;17.806;2023-07-13T02:15:51;7.88;;;2.95;;
35667;SDS011;22158;59.280;17.806;2023-07-13T02:18:17;5.63;;;2.70;;
35667;SDS011;22158;59.280;17.806;2023-07-13T02:20:43;5.45;;;3.20;;
35667;SDS011;22158;59.280;17.806;2023-07-13T02:23:09;7.78;;;2.90;;
35667;SDS011;22158;59.280;17.806;2023-07-13T02:25:35;7.03;;;3.65;;
35667;SDS011;22158;59.280;17.806;2023-07-13T02:28:00;3.58;;;3.00;;
35667;SDS011;22158;59.280;17.806;2023-07-13T02:30:26;5.22;;;3.28;;
35667;SDS011;22158;59.280;17.806;2023-07-13T02:32:54;3.95;;;2.60;;
35667;SDS011;22158;59.280;17.806;2023-07-13T02:35:20;4.20;;;3.10;;
35667;SDS011;22158;59.280;17.806;2023-07-13T02:37:46;8.82;;;3.10;;
35667;SDS011;22158;59.280;17.806;2023-07-13T02:40:12;4.90;;;2.90;;
35667;SDS011;22158;59.280;17.806;2023-07-13T02:42:38;5.10;;;3.22;;
35667;SDS011;22158;59.280;17.806;2023-07-13T02:45:04;6.82;;;3.05;;
35667;SDS011;22158;59.280;17.806;2023-07-13T02:47:31;6.22;;;3.38;;
35667;SDS011;22158;59.280;17.806;2023-07-13T02:49:57;4.20;;;3.10;;
35667;SDS011;22158;59.280;17.806;2023-07-13T02:52:23;7.13;;;3.33;;
35667;SDS011;22158;59.280;17.806;2023-07-13T02:54:49;7.20;;;2.85;;
35667;SDS011;22158;59.280;17.806;2023-07-13T02:57:15;5.40;;;3.17;;
35667;SDS011;22158;59.280;17.806;2023-07-13T02:59:40;10.25;;;4.63;;
35667;SDS011;22158;59.280;17.806;2023-07-13T03:02:06;5.32;;;3.45;;
35667;SDS011;22158;59.280;17.806;2023-07-13T03:04:32;3.92;;;3.30;;
35667;SDS011;22158;59.280;17.806;2023-07-13T03:06:57;6.65;;;3.60;;
35667;SDS011;22158;59.280;17.806;2023-07-13T03:09:24;4.72;;;3.33;;
35667;SDS011;22158;59.280;17.806;2023-07-13T03:11:52;6.25;;;3.88;;
35667;SDS011;22158;59.280;17.806;2023-07-13T03:14:19;8.13;;;3.30;;
35667;SDS011;22158;59.280;17.806;2023-07-13T03:16:44;6.35;;;3.55;;
35667;SDS011;22158;59.280;17.806;2023-07-13T03:19:10;9.50;;;3.42;;
35667;SDS011;22158;59.280;17.806;2023-07-13T03:21:35;6.65;;;3.15;;
35667;SDS011;22158;59.280;17.806;2023-07-13T03:24:01;4.55;;;3.15;;
35667;SDS011;22158;59.280;17.806;2023-07-13T03:26:27;5.93;;;3.38;;
35667;SDS011;22158;59.280;17.806;2023-07-13T03:28:52;5.10;;;3.50;;
35667;SDS011;22158;59.280;17.806;2023-07-13T03:31:19;5.57;;;3.35;;
35667;SDS011;22158;59.280;17.806;2023-07-13T03:33:47;5.60;;;3.55;;
35667;SDS011;22158;59.280;17.806;2023-07-13T03:36:15;10.10;;;3.80;;
35667;SDS011;22158;59.280;17.806;2023-07-13T03:38:52;6.72;;;3.40;;
35667;SDS011;22158;59.280;17.806;2023-07-13T03:41:20;3.97;;;3.33;;
35667;SDS011;22158;59.280;17.806;2023-07-13T03:43:47;7.70;;;3.83;;
35667;SDS011;22158;59.280;17.806;2023-07-13T03:46:13;4.15;;;3.38;;
35667;SDS011;22158;59.280;17.806;2023-07-13T03:48:40;6.47;;;3.65;;
35667;SDS011;22158;59.280;17.806;2023-07-13T03:51:07;7.10;;;3.88;;
35667;SDS011;22158;59.280;17.806;2023-07-13T03:53:34;6.45;;;3.58;;
35667;SDS011;22158;59.280;17.806;2023-07-13T03:56:03;4.33;;;3.67;;
35667;SDS011;22158;59.280;17.806;2023-07-13T03:58:33;5.90;;;3.15;;
35667;SDS011;22158;59.280;17.806;2023-07-13T04:01:01;7.28;;;3.78;;
35667;SDS011;22158;59.280;17.806;2023-07-13T04:03:28;5.80;;;3.30;;
35667;SDS011;22158;59.280;17.806;2023-07-13T04:05:57;6.60;;;4.00;;
35667;SDS011;22158;59.280;17.806;2023-07-13T04:08:28;5.60;;;3.47;;
35667;SDS011;22158;59.280;17.806;2023-07-13T04:10:55;6.93;;;3.70;;
35667;SDS011;22158;59.280;17.806;2023-07-13T04:13:21;8.02;;;3.78;;
35667;SDS011;22158;59.280;17.806;2023-07-13T04:15:47;7.03;;;3.70;;
35667;SDS011;22158;59.280;17.806;2023-07-13T04:18:13;11.18;;;4.38;;
35667;SDS011;22158;59.280;17.806;2023-07-13T04:20:39;5.43;;;4.03;;
35667;SDS011;22158;59.280;17.806;2023-07-13T04:23:04;7.47;;;4.57;;
35667;SDS011;22158;59.280;17.806;2023-07-13T04:25:30;5.63;;;3.55;;
35667;SDS011;22158;59.280;17.806;2023-07-13T04:27:56;5.55;;;4.45;;
35667;SDS011;22158;59.280;17.806;2023-07-13T04:30:22;9.63;;;3.80;;
35667;SDS011;22158;59.280;17.806;2023-07-13T04:32:48;7.40;;;3.67;;
35667;SDS011;22158;59.280;17.806;2023-07-13T04:35:14;9.43;;;3.67;;
35667;SDS011;22158;59.280;17.806;2023-07-13T04:37:40;6.20;;;3.08;;
35667;SDS011;22158;59.280;17.806;2023-07-13T04:40:06;12.90;;;4.78;;
35667;SDS011;22158;59.280;17.806;2023-07-13T04:42:36;4.03;;;3.38;;
35667;SDS011;22158;59.280;17.806;2023-07-13T04:45:02;6.22;;;3.45;;
35667;SDS011;22158;59.280;17.806;2023-07-13T04:47:29;9.23;;;3.92;;
35667;SDS011;22158;59.280;17.806;2023-07-13T04:49:55;7.65;;;3.55;;
35667;SDS011;22158;59.280;17.806;2023-07-13T04:52:22;7.65;;;3.20;;
35667;SDS011;22158;59.280;17.806;2023-07-13T04:54:48;6.85;;;3.70;;
35667;SDS011;22158;59.280;17.806;2023-07-13T04:57:13;7.30;;;3.65;;
35667;SDS011;22158;59.280;17.806;2023-07-13T04:59:39;7.60;;;3.22;;
35667;SDS011;22158;59.280;17.806;2023-07-13T05:02:05;10.02;;;3.13;;
35667;SDS011;22158;59.280;17.806;2023-07-13T05:04:31;12.60;;;4.70;;
35667;SDS011;22158;59.280;17.806;2023-07-13T05:06:56;8.05;;;3.53;;
35667;SDS011;22158;59.280;17.806;2023-07-13T05:09:22;13.23;;;3.72;;
35667;SDS011;22158;59.280;17.806;2023-07-13T05:11:48;11.48;;;3.72;;
35667;SDS011;22158;59.280;17.806;2023-07-13T05:14:13;6.10;;;3.13;;
35667;SDS011;22158;59.280;17.806;2023-07-13T05:16:40;6.07;;;3.38;;
35667;SDS011;22158;59.280;17.806;2023-07-13T05:19:06;4.50;;;3.13;;
35667;SDS011;22158;59.280;17.806;2023-07-13T05:21:31;8.57;;;3.08;;
35667;SDS011;22158;59.280;17.806;2023-07-13T05:23:57;6.13;;;3.20;;
35667;SDS011;22158;59.280;17.806;2023-07-13T05:26:22;6.57;;;2.92;;
35667;SDS011;22158;59.280;17.806;2023-07-13T05:28:48;5.70;;;3.03;;
35667;SDS011;22158;59.280;17.806;2023-07-13T05:31:13;6.10;;;2.70;;
35667;SDS011;22158;59.280;17.806;2023-07-13T05:33:39;5.28;;;2.78;;
35667;SDS011;22158;59.280;17.806;2023-07-13T05:36:05;9.68;;;3.05;;
35667;SDS011;22158;59.280;17.806;2023-07-13T05:38:32;8.75;;;3.15;;
35667;SDS011;22158;59.280;17.806;2023-07-13T05:40:58;9.93;;;4.30;;
35667;SDS011;22158;59.280;17.806;2023-07-13T05:43:23;6.40;;;3.20;;
35667;SDS011;22158;59.280;17.806;2023-07-13T05:45:50;3.78;;;2.50;;
35667;SDS011;22158;59.280;17.806;2023-07-13T05:48:18;8.73;;;3.05;;
35667;SDS011;22158;59.280;17.806;2023-07-13T05:50:43;9.68;;;2.78;;
35667;SDS011;22158;59.280;17.806;2023-07-13T05:53:09;6.47;;;2.40;;
35667;SDS011;22158;59.280;17.806;2023-07-13T05:55:35;5.68;;;2.45;;
35667;SDS011;22158;59.280;17.806;2023-07-13T05:58:00;5.40;;;2.60;;
35667;SDS011;22158;59.280;17.806;2023-07-13T06:00:26;6.70;;;2.70;;
35667;SDS011;22158;59.280;17.806;2023-07-13T06:02:52;6.47;;;2.60;;
35667;SDS011;22158;59.280;17.806;2023-07-13T06:05:18;8.15;;;2.67;;
35667;SDS011;22158;59.280;17.806;2023-07-13T06:07:44;6.15;;;3.05;;
35667;SDS011;22158;59.280;17.806;2023-07-13T06:10:09;3.85;;;3.00;;
35667;SDS011;22158;59.280;17.806;2023-07-13T06:12:35;9.65;;;2.83;;
35667;SDS011;22158;59.280;17.806;2023-07-13T06:15:01;12.13;;;2.72;;
35667;SDS011;22158;59.280;17.806;2023-07-13T06:17:27;9.50;;;2.80;;
35667;SDS011;22158;59.280;17.806;2023-07-13T06:19:53;9.40;;;2.40;;
35667;SDS011;22158;59.280;17.806;2023-07-13T06:22:18;10.43;;;2.90;;
35667;SDS011;22158;59.280;17.806;2023-07-13T06:24:44;6.45;;;3.05;;
35667;SDS011;22158;59.280;17.806;2023-07-13T06:27:09;6.70;;;2.75;;
35667;SDS011;22158;59.280;17.806;2023-07-13T06:29:35;5.50;;;2.80;;
35667;SDS011;22158;59.280;17.806;2023-07-13T06:32:01;11.15;;;3.63;;
35667;SDS011;22158;59.280;17.806;2023-07-13T06:34:26;3.03;;;1.98;;
35667;SDS011;22158;59.280;17.806;2023-07-13T06:36:52;6.53;;;2.22;;
35667;SDS011;22158;59.280;17.806;2023-07-13T06:39:17;6.85;;;3.55;;
35667;SDS011;22158;59.280;17.806;2023-07-13T06:41:43;3.65;;;2.08;;
35667;SDS011;22158;59.280;17.806;2023-07-13T06:44:08;4.38;;;2.63;;
35667;SDS011;22158;59.280;17.806;2023-07-13T06:46:34;7.00;;;2.88;;
35667;SDS011;22158;59.280;17.806;2023-07-13T06:49:00;4.43;;;3.22;;
35667;SDS011;22158;59.280;17.806;2023-07-13T06:51:25;9.30;;;3.42;;
35667;SDS011;22158;59.280;17.806;2023-07-13T06:53:51;5.82;;;2.30;;
35667;SDS011;22158;59.280;17.806;2023-07-13T06:56:17;8.93;;;2.55;;
35667;SDS011;22158;59.280;17.806;2023-07-13T06:58:42;8.75;;;2.35;;
35667;SDS011;22158;59.280;17.806;2023-07-13T07:01:08;8.50;;;2.03;;
35667;SDS011;22158;59.280;17.806;2023-07-13T07:03:34;7.90;;;2.60;;
35667;SDS011;22158;59.280;17.806;2023-07-13T07:06:00;5.97;;;2.55;;
35667;SDS011;22158;59.280;17.806;2023-07-13T07:08:42;6.45;;;2.78;;
35667;SDS011;22158;59.280;17.806;2023-07-13T07:11:13;3.55;;;2.08;;
35667;SDS011;22158;59.280;17.806;2023-07-13T07:13:41;5.35;;;2.63;;
35667;SDS011;22158;59.280;17.806;2023-07-13T07:16:07;3.33;;;2.05;;
35667;SDS011;22158;59.280;17.806;2023-07-13T07:18:33;9.57;;;2.50;;
35667;SDS011;22158;59.280;17.806;2023-07-13T07:20:59;3.83;;;1.75;;
35667;SDS011;22158;59.280;17.806;2023-07-13T07:23:25;6.82;;;2.45;;
35667;SDS011;22158;59.280;17.806;2023-07-13T07:25:50;4.45;;;2.05;;
35667;SDS011;22158;59.280;17.806;2023-07-13T07:28:17;5.45;;;2.38;;
35667;SDS011;22158;59.280;17.806;2023-07-13T07:30:45;7.75;;;2.03;;
35667;SDS011;22158;59.280;17.806;2023-07-13T07:33:12;8.65;;;2.70;;
35667;SDS011;22158;59.280;17.806;2023-07-13T07:35:38;2.67;;;1.67;;
35667;SDS011;22158;59.280;17.806;2023-07-13T07:38:03;5.05;;;2.00;;
35667;SDS011;22158;59.280;17.806;2023-07-13T07:40:29;6.40;;;1.98;;
35667;SDS011;22158;59.280;17.806;2023-07-13T07:42:56;5.15;;;1.77;;
35667;SDS011;22158;59.280;17.806;2023-07-13T07:45:22;3.97;;;1.70;;
35667;SDS011;22158;59.280;17.806;2023-07-13T07:47:48;4.80;;;2.53;;
35667;SDS011;22158;59.280;17.806;2023-07-13T07:50:14;7.15;;;1.50;;
35667;SDS011;22158;59.280;17.806;2023-07-13T07:52:40;7.80;;;1.98;;
35667;SDS011;22158;59.280;17.806;2023-07-13T07:55:06;6.15;;;2.13;;
35667;SDS011;22158;59.280;17.806;2023-07-13T07:57:32;9.65;;;2.40;;
35667;SDS011;22158;59.280;17.806;2023-07-13T07:59:58;3.65;;;1.95;;
35667;SDS011;22158;59.280;17.806;2023-07-13T08:02:24;6.55;;;1.83;;
35667;SDS011;22158;59.280;17.806;2023-07-13T08:04:50;3.72;;;1.90;;
35667;SDS011;22158;59.280;17.806;2023-07-13T08:07:17;3.88;;;1.75;;
35667;SDS011;22158;59.280;17.806;2023-07-13T08:09:43;5.50;;;2.15;;
35667;SDS011;22158;59.280;17.806;2023-07-13T08:12:09;3.17;;;1.70;;
35667;SDS011;22158;59.280;17.806;2023-07-13T08:14:34;4.63;;;2.25;;
35667;SDS011;22158;59.280;17.806;2023-07-13T08:17:00;5.20;;;1.58;;
35667;SDS011;22158;59.280;17.806;2023-07-13T08:19:25;6.15;;;1.73;;
35667;SDS011;22158;59.280;17.806;2023-07-13T08:21:51;2.03;;;1.25;;
35667;SDS011;22158;59.280;17.806;2023-07-13T08:24:17;4.82;;;1.58;;
35667;SDS011;22158;59.280;17.806;2023-07-13T08:26:43;5.55;;;1.70;;
35667;SDS011;22158;59.280;17.806;2023-07-13T08:29:11;5.70;;;1.60;;
35667;SDS011;22158;59.280;17.806;2023-07-13T08:31:36;4.00;;;1.75;;
35667;SDS011;22158;59.280;17.806;2023-07-13T08:34:02;4.63;;;2.00;;
35667;SDS011;22158;59.280;17.806;2023-07-13T08:36:28;2.85;;;1.30;;
35667;SDS011;22158;59.280;17.806;2023-07-13T08:38:54;4.40;;;1.60;;
35667;SDS011;22158;59.280;17.806;2023-07-13T08:41:20;4.78;;;2.20;;
35667;SDS011;22158;59.280;17.806;2023-07-13T08:43:47;2.80;;;1.40;;
35667;SDS011;22158;59.280;17.806;2023-07-13T08:46:21;4.28;;;1.52;;
35667;SDS011;22158;59.280;17.806;2023-07-13T08:49:13;5.18;;;2.17;;
35667;SDS011;22158;59.280;17.806;2023-07-13T08:51:45;6.00;;;1.48;;
35667;SDS011;22158;59.280;17.806;2023-07-13T08:57:03;3.97;;;1.13;;
35667;SDS011;22158;59.280;17.806;2023-07-13T08:59:37;3.60;;;1.95;;
35667;SDS011;22158;59.280;17.806;2023-07-13T09:04:53;5.38;;;2.03;;
35667;SDS011;22158;59.280;17.806;2023-07-13T09:08:12;4.57;;;1.80;;
35667;SDS011;22158;59.280;17.806;2023-07-13T09:10:44;5.70;;;2.22;;
35667;SDS011;22158;59.280;17.806;2023-07-13T09:13:15;3.28;;;1.42;;
35667;SDS011;22158;59.280;17.806;2023-07-13T09:16:04;3.50;;;1.58;;
35667;SDS011;22158;59.280;17.806;2023-07-13T09:21:22;4.43;;;1.50;;
35667;SDS011;22158;59.280;17.806;2023-07-13T09:23:56;5.18;;;1.42;;
35667;SDS011;22158;59.280;17.806;2023-07-13T09:26:26;4.25;;;1.33;;
35667;SDS011;22158;59.280;17.806;2023-07-13T09:29:19;4.95;;;2.05;;
35667;SDS011;22158;59.280;17.806;2023-07-13T09:31:49;4.00;;;2.00;;
35667;SDS011;22158;59.280;17.806;2023-07-13T09:34:18;7.75;;;1.40;;
35667;SDS011;22158;59.280;17.806;2023-07-13T09:36:44;3.70;;;1.40;;
35667;SDS011;22158;59.280;17.806;2023-07-13T09:42:01;4.38;;;1.67;;
35667;SDS011;22158;59.280;17.806;2023-07-13T09:44:33;5.00;;;1.88;;
35667;SDS011;22158;59.280;17.806;2023-07-13T09:47:00;5.75;;;2.20;;
35667;SDS011;22158;59.280;17.806;2023-07-13T09:49:27;5.38;;;1.60;;
35667;SDS011;22158;59.280;17.806;2023-07-13T09:52:04;3.35;;;1.30;;
35667;SDS011;22158;59.280;17.806;2023-07-13T09:54:35;3.25;;;1.60;;
35667;SDS011;22158;59.280;17.806;2023-07-13T09:57:03;5.30;;;1.63;;
35667;SDS011;22158;59.280;17.806;2023-07-13T09:59:40;4.20;;;1.65;;
35667;SDS011;22158;59.280;17.806;2023-07-13T10:05:00;4.40;;;1.58;;
35667;SDS011;22158;59.280;17.806;2023-07-13T10:07:40;5.75;;;2.33;;
35667;SDS011;22158;59.280;17.806;2023-07-13T10:10:16;2.28;;;1.17;;
35667;SDS011;22158;59.280;17.806;2023-07-13T10:12:45;3.50;;;1.45;;
35667;SDS011;22158;59.280;17.806;2023-07-13T10:15:18;6.38;;;1.35;;
35667;SDS011;22158;59.280;17.806;2023-07-13T10:17:46;5.07;;;2.17;;
35667;SDS011;22158;59.280;17.806;2023-07-13T10:20:12;4.07;;;1.33;;
35667;SDS011;22158;59.280;17.806;2023-07-13T10:25:33;3.97;;;1.45;;
35667;SDS011;22158;59.280;17.806;2023-07-13T10:30:35;3.75;;;1.50;;
35667;SDS011;22158;59.280;17.806;2023-07-13T10:33:08;4.22;;;1.33;;
35667;SDS011;22158;59.280;17.806;2023-07-13T10:35:36;3.75;;;1.40;;
35667;SDS011;22158;59.280;17.806;2023-07-13T10:38:05;8.63;;;1.85;;
35667;SDS011;22158;59.280;17.806;2023-07-13T10:40:37;3.45;;;1.58;;
35667;SDS011;22158;59.280;17.806;2023-07-13T10:43:20;2.13;;;1.58;;
35667;SDS011;22158;59.280;17.806;2023-07-13T10:45:48;5.70;;;1.65;;
35667;SDS011;22158;59.280;17.806;2023-07-13T10:48:15;5.28;;;1.08;;
35667;SDS011;22158;59.280;17.806;2023-07-13T10:50:42;5.50;;;1.35;;
35667;SDS011;22158;59.280;17.806;2023-07-13T10:53:20;5.85;;;1.45;;
35667;SDS011;22158;59.280;17.806;2023-07-13T11:01:20;5.13;;;1.75;;
35667;SDS011;22158;59.280;17.806;2023-07-13T11:03:47;2.08;;;1.13;;
35667;SDS011;22158;59.280;17.806;2023-07-13T11:08:56;4.68;;;1.50;;
35667;SDS011;22158;59.280;17.806;2023-07-13T11:18:49;3.05;;;1.35;;
35667;SDS011;22158;59.280;17.806;2023-07-13T11:23:44;3.17;;;1.30;;
35667;SDS011;22158;59.280;17.806;2023-07-13T11:29:27;3.13;;;1.30;;
35667;SDS011;22158;59.280;17.806;2023-07-13T11:32:15;3.08;;;1.20;;
35667;SDS011;22158;59.280;17.806;2023-07-13T11:34:51;5.03;;;1.52;;
35667;SDS011;22158;59.280;17.806;2023-07-13T11:37:19;2.78;;;1.42;;
35667;SDS011;22158;59.280;17.806;2023-07-13T11:39:45;3.65;;;1.50;;
35667;SDS011;22158;59.280;17.806;2023-07-13T11:42:15;5.78;;;2.05;;
35667;SDS011;22158;59.280;17.806;2023-07-13T11:44:43;3.63;;;1.45;;
35667;SDS011;22158;59.280;17.806;2023-07-13T11:47:19;3.78;;;1.60;;
35667;SDS011;22158;59.280;17.806;2023-07-13T11:49:50;3.25;;;1.30;;
35667;SDS011;22158;59.280;17.806;2023-07-13T11:52:22;5.13;;;1.50;;
35667;SDS011;22158;59.280;17.806;2023-07-13T11:54:55;5.75;;;1.85;;
35667;SDS011;22158;59.280;17.806;2023-07-13T11:57:32;5.25;;;1.63;;
35667;SDS011;22158;59.280;17.806;2023-07-13T12:00:02;2.80;;;1.70;;
35667;SDS011;22158;59.280;17.806;2023-07-13T12:02:33;5.07;;;1.83;;
35667;SDS011;22158;59.280;17.806;2023-07-13T12:05:04;6.47;;;1.77;;
35667;SDS011;22158;59.280;17.806;2023-07-13T12:07:31;3.63;;;1.50;;
35667;SDS011;22158;59.280;17.806;2023-07-13T12:12:40;4.35;;;1.85;;
35667;SDS011;22158;59.280;17.806;2023-07-13T12:15:19;7.22;;;1.65;;
35667;SDS011;22158;59.280;17.806;2023-07-13T12:17:47;4.30;;;1.40;;
35667;SDS011;22158;59.280;17.806;2023-07-13T12:22:47;2.40;;;1.65;;
35667;SDS011;22158;59.280;17.806;2023-07-13T12:25:14;2.97;;;1.45;;
35667;SDS011;22158;59.280;17.806;2023-07-13T12:27:40;1.58;;;1.35;;
35667;SDS011;22158;59.280;17.806;2023-07-13T12:30:28;3.38;;;1.58;;
35667;SDS011;22158;59.280;17.806;2023-07-13T12:33:16;4.78;;;1.27;;
35667;SDS011;22158;59.280;17.806;2023-07-13T12:35:45;3.42;;;1.40;;
35667;SDS011;22158;59.280;17.806;2023-07-13T12:38:12;2.50;;;1.80;;
35667;SDS011;22158;59.280;17.806;2023-07-13T12:40:38;3.92;;;1.25;;
35667;SDS011;22158;59.280;17.806;2023-07-13T12:43:09;3.63;;;1.30;;
35667;SDS011;22158;59.280;17.806;2023-07-13T12:45:54;2.97;;;0.98;;
35667;SDS011;22158;59.280;17.806;2023-07-13T12:48:23;1.75;;;1.08;;
35667;SDS011;22158;59.280;17.806;2023-07-13T12:50:50;1.67;;;1.00;;
35667;SDS011;22158;59.280;17.806;2023-07-13T12:53:17;1.92;;;1.50;;
35667;SDS011;22158;59.280;17.806;2023-07-13T12:55:57;2.53;;;1.48;;
35667;SDS011;22158;59.280;17.806;2023-07-13T12:58:35;2.15;;;1.20;;
35667;SDS011;22158;59.280;17.806;2023-07-13T13:01:03;4.63;;;1.60;;
35667;SDS011;22158;59.280;17.806;2023-07-13T13:03:46;5.75;;;1.30;;
35667;SDS011;22158;59.280;17.806;2023-07-13T13:08:43;4.20;;;1.10;;
35667;SDS011;22158;59.280;17.806;2023-07-13T13:11:10;3.88;;;1.10;;
35667;SDS011;22158;59.280;17.806;2023-07-13T13:13:35;5.65;;;1.88;;
35667;SDS011;22158;59.280;17.806;2023-07-13T13:16:09;5.07;;;1.58;;
35667;SDS011;22158;59.280;17.806;2023-07-13T13:18:35;2.38;;;1.38;;
35667;SDS011;22158;59.280;17.806;2023-07-13T13:21:01;2.65;;;1.70;;
35667;SDS011;22158;59.280;17.806;2023-07-13T13:23:26;3.78;;;1.15;;
35667;SDS011;22158;59.280;17.806;2023-07-13T13:25:52;2.88;;;1.10;;
35667;SDS011;22158;59.280;17.806;2023-07-13T13:28:19;2.58;;;1.38;;
35667;SDS011;22158;59.280;17.806;2023-07-13T13:30:46;2.50;;;1.10;;
35667;SDS011;22158;59.280;17.806;2023-07-13T13:33:15;4.25;;;1.40;;
35667;SDS011;22158;59.280;17.806;2023-07-13T13:35:43;2.45;;;1.30;;
35667;SDS011;22158;59.280;17.806;2023-07-13T13:38:13;6.45;;;1.08;;
35667;SDS011;22158;59.280;17.806;2023-07-13T13:40:43;1.92;;;1.10;;
35667;SDS011;22158;59.280;17.806;2023-07-13T13:43:20;2.73;;;1.40;;
35667;SDS011;22158;59.280;17.806;2023-07-13T13:45:51;2.80;;;1.13;;
35667;SDS011;22158;59.280;17.806;2023-07-13T13:48:17;2.67;;;1.08;;
35667;SDS011;22158;59.280;17.806;2023-07-13T13:50:45;1.60;;;1.00;;
35667;SDS011;22158;59.280;17.806;2023-07-13T13:53:12;2.97;;;1.30;;
35667;SDS011;22158;59.280;17.806;2023-07-13T13:55:39;3.55;;;1.08;;
35667;SDS011;22158;59.280;17.806;2023-07-13T13:58:07;3.38;;;1.20;;
35667;SDS011;22158;59.280;17.806;2023-07-13T14:00:34;4.03;;;1.38;;
35667;SDS011;22158;59.280;17.806;2023-07-13T14:03:00;3.47;;;1.60;;
35667;SDS011;22158;59.280;17.806;2023-07-13T14:05:26;5.20;;;1.35;;
35667;SDS011;22158;59.280;17.806;2023-07-13T14:07:52;3.17;;;1.50;;
35667;SDS011;22158;59.280;17.806;2023-07-13T14:10:18;1.85;;;1.13;;
35667;SDS011;22158;59.280;17.806;2023-07-13T14:12:45;4.55;;;1.30;;
35667;SDS011;22158;59.280;17.806;2023-07-13T14:15:15;4.00;;;1.33;;
35667;SDS011;22158;59.280;17.806;2023-07-13T14:17:47;4.47;;;0.85;;
35667;SDS011;22158;59.280;17.806;2023-07-13T14:20:16;4.85;;;1.45;;
35667;SDS011;22158;59.280;17.806;2023-07-13T14:22:43;2.75;;;1.20;;
35667;SDS011;22158;59.280;17.806;2023-07-13T14:25:12;4.25;;;1.27;;
35667;SDS011;22158;59.280;17.806;2023-07-13T14:27:40;3.85;;;1.40;;
35667;SDS011;22158;59.280;17.806;2023-07-13T14:30:25;2.13;;;1.20;;
35667;SDS011;22158;59.280;17.806;2023-07-13T14:32:51;1.48;;;1.10;;
35667;SDS011;22158;59.280;17.806;2023-07-13T14:35:18;2.28;;;1.40;;
35667;SDS011;22158;59.280;17.806;2023-07-13T14:37:46;4.28;;;1.65;;
35667;SDS011;22158;59.280;17.806;2023-07-13T14:40:13;4.10;;;1.63;;
35667;SDS011;22158;59.280;17.806;2023-07-13T14:42:40;6.13;;;1.85;;
35667;SDS011;22158;59.280;17.806;2023-07-13T14:45:12;5.13;;;1.48;;
35667;SDS011;22158;59.280;17.806;2023-07-13T14:47:39;3.47;;;1.60;;
35667;SDS011;22158;59.280;17.806;2023-07-13T14:50:05;6.05;;;1.52;;
35667;SDS011;22158;59.280;17.806;2023-07-13T14:52:36;5.88;;;1.80;;
35667;SDS011;22158;59.280;17.806;2023-07-13T14:55:02;3.95;;;1.48;;
35667;SDS011;22158;59.280;17.806;2023-07-13T14:57:28;2.97;;;1.88;;
35667;SDS011;22158;59.280;17.806;2023-07-13T14:59:53;7.22;;;2.03;;
35667;SDS011;22158;59.280;17.806;2023-07-13T15:02:26;4.82;;;2.45;;
35667;SDS011;22158;59.280;17.806;2023-07-13T15:04:54;5.57;;;2.05;;
35667;SDS011;22158;59.280;17.806;2023-07-13T15:07:20;7.13;;;2.08;;
35667;SDS011;22158;59.280;17.806;2023-07-13T15:09:46;5.97;;;2.00;;
35667;SDS011;22158;59.280;17.806;2023-07-13T15:12:13;6.90;;;2.88;;
35667;SDS011;22158;59.280;17.806;2023-07-13T15:14:39;4.10;;;1.88;;
35667;SDS011;22158;59.280;17.806;2023-07-13T15:17:05;5.32;;;2.63;;
35667;SDS011;22158;59.280;17.806;2023-07-13T15:19:42;5.13;;;2.10;;
35667;SDS011;22158;59.280;17.806;2023-07-13T15:22:08;4.13;;;2.30;;
35667;SDS011;22158;59.280;17.806;2023-07-13T15:24:35;3.90;;;1.65;;
35667;SDS011;22158;59.280;17.806;2023-07-13T15:27:02;4.60;;;1.98;;
35667;SDS011;22158;59.280;17.806;2023-07-13T15:29:29;8.77;;;1.67;;
35667;SDS011;22158;59.280;17.806;2023-07-13T15:31:54;4.20;;;1.70;;
35667;SDS011;22158;59.280;17.806;2023-07-13T15:34:20;3.78;;;1.90;;